sensor_id;sensor_type;location;lat;lon;timestamp;temperature;humidity
18611;DHT22;9435;52.122;5.502;2022-12-18T00:01:00;-3.10;99.90
18611;DHT22;9435;52.122;5.502;2022-12-18T00:03:32;-3.10;99.90
18611;DHT22;9435;52.122;5.502;2022-12-18T00:05:59;-3.10;99.90
18611;DHT22;9435;52.122;5.502;2022-12-18T00:08:26;-3.20;99.90
18611;DHT22;9435;52.122;5.502;2022-12-18T00:10:54;-3.10;99.90
18611;DHT22;9435;52.122;5.502;2022-12-18T00:13:22;-3.10;99.90
18611;DHT22;9435;52.122;5.502;2022-12-18T00:15:49;-3.20;99.90
18611;DHT22;9435;52.122;5.502;2022-12-18T00:18:16;-3.20;99.90
18611;DHT22;9435;52.122;5.502;2022-12-18T00:20:43;-3.20;99.90
18611;DHT22;9435;52.122;5.502;2022-12-18T00:23:10;-3.30;99.90
18611;DHT22;9435;52.122;5.502;2022-12-18T00:25:37;-3.30;99.90
18611;DHT22;9435;52.122;5.502;2022-12-18T00:28:05;-3.30;99.90
18611;DHT22;9435;52.122;5.502;2022-12-18T00:30:33;-3.40;99.90
18611;DHT22;9435;52.122;5.502;2022-12-18T00:33:00;-3.40;99.90
18611;DHT22;9435;52.122;5.502;2022-12-18T00:35:27;-3.30;99.90
18611;DHT22;9435;52.122;5.502;2022-12-18T00:37:54;-3.30;99.90
18611;DHT22;9435;52.122;5.502;2022-12-18T00:40:21;-3.30;99.90
18611;DHT22;9435;52.122;5.502;2022-12-18T00:42:48;-3.40;99.90
18611;DHT22;9435;52.122;5.502;2022-12-18T00:45:25;-3.40;99.90
18611;DHT22;9435;52.122;5.502;2022-12-18T00:47:52;-3.40;99.90
18611;DHT22;9435;52.122;5.502;2022-12-18T00:50:20;-3.50;99.90
18611;DHT22;9435;52.122;5.502;2022-12-18T00:52:47;-3.50;99.90
18611;DHT22;9435;52.122;5.502;2022-12-18T00:55:15;-3.50;99.90
18611;DHT22;9435;52.122;5.502;2022-12-18T00:57:42;-3.50;99.90
18611;DHT22;9435;52.122;5.502;2022-12-18T01:00:11;-3.40;99.90
18611;DHT22;9435;52.122;5.502;2022-12-18T01:02:40;-3.50;99.90
18611;DHT22;9435;52.122;5.502;2022-12-18T01:05:08;-3.50;99.90
18611;DHT22;9435;52.122;5.502;2022-12-18T01:07:35;-3.50;99.90
18611;DHT22;9435;52.122;5.502;2022-12-18T01:10:03;-3.50;99.90
18611;DHT22;9435;52.122;5.502;2022-12-18T01:12:31;-3.50;99.90
18611;DHT22;9435;52.122;5.502;2022-12-18T01:14:58;-3.50;99.90
18611;DHT22;9435;52.122;5.502;2022-12-18T01:17:25;-3.50;99.90
18611;DHT22;9435;52.122;5.502;2022-12-18T01:19:53;-3.50;99.90
18611;DHT22;9435;52.122;5.502;2022-12-18T01:22:21;-3.60;99.90
18611;DHT22;9435;52.122;5.502;2022-12-18T01:24:48;-3.60;99.90
18611;DHT22;9435;52.122;5.502;2022-12-18T01:27:15;-3.60;99.90
18611;DHT22;9435;52.122;5.502;2022-12-18T01:29:42;-3.60;99.90
18611;DHT22;9435;52.122;5.502;2022-12-18T01:32:09;-3.50;99.90
18611;DHT22;9435;52.122;5.502;2022-12-18T01:34:37;-3.60;99.90
18611;DHT22;9435;52.122;5.502;2022-12-18T01:37:08;-3.60;99.90
18611;DHT22;9435;52.122;5.502;2022-12-18T01:39:37;-3.60;99.90
18611;DHT22;9435;52.122;5.502;2022-12-18T01:42:11;-3.60;99.90
18611;DHT22;9435;52.122;5.502;2022-12-18T01:44:59;-3.70;99.90
18611;DHT22;9435;52.122;5.502;2022-12-18T01:47:33;-3.60;99.90
18611;DHT22;9435;52.122;5.502;2022-12-18T01:50:04;-3.60;99.90
18611;DHT22;9435;52.122;5.502;2022-12-18T01:52:34;-3.60;99.90
18611;DHT22;9435;52.122;5.502;2022-12-18T01:55:08;-3.60;99.90
18611;DHT22;9435;52.122;5.502;2022-12-18T01:57:36;-3.60;99.90
18611;DHT22;9435;52.122;5.502;2022-12-18T02:00:07;-3.70;99.90
18611;DHT22;9435;52.122;5.502;2022-12-18T02:02:34;-3.70;99.90
18611;DHT22;9435;52.122;5.502;2022-12-18T02:05:03;-3.70;99.90
18611;DHT22;9435;52.122;5.502;2022-12-18T02:07:37;-3.70;99.90
18611;DHT22;9435;52.122;5.502;2022-12-18T02:10:14;-3.80;99.90
18611;DHT22;9435;52.122;5.502;2022-12-18T02:12:45;-3.80;99.90
18611;DHT22;9435;52.122;5.502;2022-12-18T02:15:18;-3.80;99.90
18611;DHT22;9435;52.122;5.502;2022-12-18T02:17:56;-3.80;99.90
18611;DHT22;9435;52.122;5.502;2022-12-18T02:20:30;-3.80;99.90
18611;DHT22;9435;52.122;5.502;2022-12-18T02:23:08;-3.80;99.90
18611;DHT22;9435;52.122;5.502;2022-12-18T02:26:08;-3.90;99.90
18611;DHT22;9435;52.122;5.502;2022-12-18T02:28:44;-3.90;99.90
18611;DHT22;9435;52.122;5.502;2022-12-18T02:31:15;-4.00;99.90
18611;DHT22;9435;52.122;5.502;2022-12-18T02:33:45;-4.00;99.90
18611;DHT22;9435;52.122;5.502;2022-12-18T02:36:14;-4.00;99.90
18611;DHT22;9435;52.122;5.502;2022-12-18T02:38:44;-3.90;99.90
18611;DHT22;9435;52.122;5.502;2022-12-18T02:41:14;-4.00;99.90
18611;DHT22;9435;52.122;5.502;2022-12-18T02:43:46;-4.00;99.90
18611;DHT22;9435;52.122;5.502;2022-12-18T02:46:27;-4.10;99.90
18611;DHT22;9435;52.122;5.502;2022-12-18T02:49:06;-4.10;99.90
18611;DHT22;9435;52.122;5.502;2022-12-18T02:51:42;-4.10;99.90
18611;DHT22;9435;52.122;5.502;2022-12-18T02:54:29;-4.10;99.90
18611;DHT22;9435;52.122;5.502;2022-12-18T02:57:08;-4.20;99.90
18611;DHT22;9435;52.122;5.502;2022-12-18T02:59:43;-4.30;99.90
18611;DHT22;9435;52.122;5.502;2022-12-18T03:02:18;-4.40;99.90
18611;DHT22;9435;52.122;5.502;2022-12-18T03:04:52;-4.40;99.90
18611;DHT22;9435;52.122;5.502;2022-12-18T03:07:27;-4.40;99.90
18611;DHT22;9435;52.122;5.502;2022-12-18T03:09:55;-4.40;99.90
18611;DHT22;9435;52.122;5.502;2022-12-18T03:12:29;-4.50;99.90
18611;DHT22;9435;52.122;5.502;2022-12-18T03:15:01;-4.50;99.90
18611;DHT22;9435;52.122;5.502;2022-12-18T03:17:31;-4.50;99.90
18611;DHT22;9435;52.122;5.502;2022-12-18T03:20:03;-4.50;99.90
18611;DHT22;9435;52.122;5.502;2022-12-18T03:22:33;-4.60;99.90
18611;DHT22;9435;52.122;5.502;2022-12-18T03:25:03;-4.50;99.90
18611;DHT22;9435;52.122;5.502;2022-12-18T03:27:36;-4.50;99.90
18611;DHT22;9435;52.122;5.502;2022-12-18T03:30:05;-4.60;99.90
18611;DHT22;9435;52.122;5.502;2022-12-18T03:32:39;-4.60;99.90
18611;DHT22;9435;52.122;5.502;2022-12-18T03:35:08;-4.50;99.90
18611;DHT22;9435;52.122;5.502;2022-12-18T03:37:36;-4.50;99.90
18611;DHT22;9435;52.122;5.502;2022-12-18T03:40:04;-4.60;99.90
18611;DHT22;9435;52.122;5.502;2022-12-18T03:42:37;-4.60;99.90
18611;DHT22;9435;52.122;5.502;2022-12-18T03:45:09;-4.60;99.90
18611;DHT22;9435;52.122;5.502;2022-12-18T03:47:41;-4.60;99.90
18611;DHT22;9435;52.122;5.502;2022-12-18T03:50:14;-4.70;99.90
18611;DHT22;9435;52.122;5.502;2022-12-18T03:52:45;-4.70;99.90
18611;DHT22;9435;52.122;5.502;2022-12-18T03:55:16;-4.80;99.90
18611;DHT22;9435;52.122;5.502;2022-12-18T03:57:45;-4.70;99.90
18611;DHT22;9435;52.122;5.502;2022-12-18T04:00:16;-4.70;99.90
18611;DHT22;9435;52.122;5.502;2022-12-18T04:02:47;-4.80;99.90
18611;DHT22;9435;52.122;5.502;2022-12-18T04:05:16;-4.80;99.90
18611;DHT22;9435;52.122;5.502;2022-12-18T04:07:45;-4.70;99.90
18611;DHT22;9435;52.122;5.502;2022-12-18T04:10:14;-4.70;99.90
18611;DHT22;9435;52.122;5.502;2022-12-18T04:12:42;-4.80;99.90
18611;DHT22;9435;52.122;5.502;2022-12-18T04:15:12;-4.80;99.90
18611;DHT22;9435;52.122;5.502;2022-12-18T04:17:41;-4.90;99.90
18611;DHT22;9435;52.122;5.502;2022-12-18T04:20:10;-4.90;99.90
18611;DHT22;9435;52.122;5.502;2022-12-18T04:22:37;-4.90;99.90
18611;DHT22;9435;52.122;5.502;2022-12-18T04:25:05;-4.90;99.90
18611;DHT22;9435;52.122;5.502;2022-12-18T04:27:32;-4.90;99.90
18611;DHT22;9435;52.122;5.502;2022-12-18T04:29:59;-4.90;99.90
18611;DHT22;9435;52.122;5.502;2022-12-18T04:32:27;-5.00;99.90
18611;DHT22;9435;52.122;5.502;2022-12-18T04:34:54;-5.00;99.90
18611;DHT22;9435;52.122;5.502;2022-12-18T04:37:21;-5.00;99.90
18611;DHT22;9435;52.122;5.502;2022-12-18T04:39:48;-5.00;99.90
18611;DHT22;9435;52.122;5.502;2022-12-18T04:42:16;-5.00;99.90
18611;DHT22;9435;52.122;5.502;2022-12-18T04:44:43;-5.00;99.90
18611;DHT22;9435;52.122;5.502;2022-12-18T04:47:10;-5.00;99.90
18611;DHT22;9435;52.122;5.502;2022-12-18T04:49:38;-5.00;99.90
18611;DHT22;9435;52.122;5.502;2022-12-18T04:52:06;-5.00;99.90
18611;DHT22;9435;52.122;5.502;2022-12-18T04:54:33;-5.00;99.90
18611;DHT22;9435;52.122;5.502;2022-12-18T04:57:01;-5.00;99.90
18611;DHT22;9435;52.122;5.502;2022-12-18T04:59:28;-5.00;99.90
18611;DHT22;9435;52.122;5.502;2022-12-18T05:01:55;-5.10;99.90
18611;DHT22;9435;52.122;5.502;2022-12-18T05:04:22;-5.10;99.90
18611;DHT22;9435;52.122;5.502;2022-12-18T05:06:50;-5.10;99.90
18611;DHT22;9435;52.122;5.502;2022-12-18T05:09:17;-5.10;99.90
18611;DHT22;9435;52.122;5.502;2022-12-18T05:11:44;-5.20;99.90
18611;DHT22;9435;52.122;5.502;2022-12-18T05:14:12;-5.20;99.90
18611;DHT22;9435;52.122;5.502;2022-12-18T05:16:39;-5.20;99.90
18611;DHT22;9435;52.122;5.502;2022-12-18T05:19:06;-5.20;99.90
18611;DHT22;9435;52.122;5.502;2022-12-18T05:21:33;-5.30;99.90
18611;DHT22;9435;52.122;5.502;2022-12-18T05:24:01;-5.30;99.90
18611;DHT22;9435;52.122;5.502;2022-12-18T05:26:29;-5.30;99.90
18611;DHT22;9435;52.122;5.502;2022-12-18T05:28:56;-5.30;99.90
18611;DHT22;9435;52.122;5.502;2022-12-18T05:31:23;-5.30;99.90
18611;DHT22;9435;52.122;5.502;2022-12-18T05:33:50;-5.20;99.90
18611;DHT22;9435;52.122;5.502;2022-12-18T05:36:17;-5.30;99.90
18611;DHT22;9435;52.122;5.502;2022-12-18T05:38:44;-5.30;99.90
18611;DHT22;9435;52.122;5.502;2022-12-18T05:41:12;-5.30;99.90
18611;DHT22;9435;52.122;5.502;2022-12-18T05:43:40;-5.30;99.90
18611;DHT22;9435;52.122;5.502;2022-12-18T05:46:09;-5.30;99.90
18611;DHT22;9435;52.122;5.502;2022-12-18T05:48:37;-5.30;99.90
18611;DHT22;9435;52.122;5.502;2022-12-18T05:51:06;-5.30;99.90
18611;DHT22;9435;52.122;5.502;2022-12-18T05:53:34;-5.30;99.90
18611;DHT22;9435;52.122;5.502;2022-12-18T05:56:02;-5.30;99.90
18611;DHT22;9435;52.122;5.502;2022-12-18T05:58:32;-5.40;99.90
18611;DHT22;9435;52.122;5.502;2022-12-18T06:01:08;-5.40;99.90
18611;DHT22;9435;52.122;5.502;2022-12-18T06:03:35;-5.40;99.90
18611;DHT22;9435;52.122;5.502;2022-12-18T06:06:03;-5.40;99.90
18611;DHT22;9435;52.122;5.502;2022-12-18T06:08:30;-5.40;99.90
18611;DHT22;9435;52.122;5.502;2022-12-18T06:10:57;-5.40;99.90
18611;DHT22;9435;52.122;5.502;2022-12-18T06:13:24;-5.40;99.90
18611;DHT22;9435;52.122;5.502;2022-12-18T06:15:53;-5.40;99.90
18611;DHT22;9435;52.122;5.502;2022-12-18T06:18:20;-5.50;99.90
18611;DHT22;9435;52.122;5.502;2022-12-18T06:20:54;-5.40;99.90
18611;DHT22;9435;52.122;5.502;2022-12-18T06:23:22;-5.50;99.90
18611;DHT22;9435;52.122;5.502;2022-12-18T06:25:49;-5.40;99.90
18611;DHT22;9435;52.122;5.502;2022-12-18T06:28:16;-5.50;99.90
18611;DHT22;9435;52.122;5.502;2022-12-18T06:30:43;-5.50;99.90
18611;DHT22;9435;52.122;5.502;2022-12-18T06:33:12;-5.50;99.90
18611;DHT22;9435;52.122;5.502;2022-12-18T06:35:40;-5.50;99.90
18611;DHT22;9435;52.122;5.502;2022-12-18T06:38:07;-5.60;99.90
18611;DHT22;9435;52.122;5.502;2022-12-18T06:40:35;-5.60;99.90
18611;DHT22;9435;52.122;5.502;2022-12-18T06:43:03;-5.60;99.90
18611;DHT22;9435;52.122;5.502;2022-12-18T06:45:30;-5.60;99.90
18611;DHT22;9435;52.122;5.502;2022-12-18T06:47:57;-5.70;99.90
18611;DHT22;9435;52.122;5.502;2022-12-18T06:50:25;-5.70;99.90
18611;DHT22;9435;52.122;5.502;2022-12-18T06:52:52;-5.70;99.90
18611;DHT22;9435;52.122;5.502;2022-12-18T06:55:20;-5.70;99.90
18611;DHT22;9435;52.122;5.502;2022-12-18T06:57:47;-5.70;99.90
18611;DHT22;9435;52.122;5.502;2022-12-18T07:00:14;-5.70;99.90
18611;DHT22;9435;52.122;5.502;2022-12-18T07:02:41;-5.70;99.90
18611;DHT22;9435;52.122;5.502;2022-12-18T07:05:08;-5.70;99.90
18611;DHT22;9435;52.122;5.502;2022-12-18T07:07:37;-5.60;99.90
18611;DHT22;9435;52.122;5.502;2022-12-18T07:10:04;-5.70;99.90
18611;DHT22;9435;52.122;5.502;2022-12-18T07:12:32;-5.70;99.90
18611;DHT22;9435;52.122;5.502;2022-12-18T07:14:59;-5.60;99.90
18611;DHT22;9435;52.122;5.502;2022-12-18T07:17:26;-5.70;99.90
18611;DHT22;9435;52.122;5.502;2022-12-18T07:19:53;-5.60;99.90
18611;DHT22;9435;52.122;5.502;2022-12-18T07:22:20;-5.60;99.90
18611;DHT22;9435;52.122;5.502;2022-12-18T07:24:48;-5.60;99.90
18611;DHT22;9435;52.122;5.502;2022-12-18T07:27:15;-5.60;99.90
18611;DHT22;9435;52.122;5.502;2022-12-18T07:29:42;-5.60;99.90
18611;DHT22;9435;52.122;5.502;2022-12-18T07:32:09;-5.60;99.90
18611;DHT22;9435;52.122;5.502;2022-12-18T07:34:37;-5.60;99.90
18611;DHT22;9435;52.122;5.502;2022-12-18T07:37:04;-5.60;99.90
18611;DHT22;9435;52.122;5.502;2022-12-18T07:39:31;-5.50;99.90
18611;DHT22;9435;52.122;5.502;2022-12-18T07:41:59;-5.60;99.90
18611;DHT22;9435;52.122;5.502;2022-12-18T07:44:44;-5.60;99.90
18611;DHT22;9435;52.122;5.502;2022-12-18T07:47:11;-5.50;99.90
18611;DHT22;9435;52.122;5.502;2022-12-18T07:49:38;-5.50;99.90
18611;DHT22;9435;52.122;5.502;2022-12-18T07:52:05;-5.60;99.90
18611;DHT22;9435;52.122;5.502;2022-12-18T07:54:32;-5.50;99.90
18611;DHT22;9435;52.122;5.502;2022-12-18T07:57:00;-5.50;99.90
18611;DHT22;9435;52.122;5.502;2022-12-18T07:59:27;-5.50;99.90
18611;DHT22;9435;52.122;5.502;2022-12-18T08:01:54;-5.40;99.90
18611;DHT22;9435;52.122;5.502;2022-12-18T08:04:21;-5.40;99.90
18611;DHT22;9435;52.122;5.502;2022-12-18T08:06:49;-5.40;99.90
18611;DHT22;9435;52.122;5.502;2022-12-18T08:09:16;-5.40;99.90
18611;DHT22;9435;52.122;5.502;2022-12-18T08:11:43;-5.30;99.90
18611;DHT22;9435;52.122;5.502;2022-12-18T08:14:11;-5.30;99.90
18611;DHT22;9435;52.122;5.502;2022-12-18T08:16:39;-5.20;99.90
18611;DHT22;9435;52.122;5.502;2022-12-18T08:19:06;-5.10;99.90
18611;DHT22;9435;52.122;5.502;2022-12-18T08:21:33;-5.10;99.90
18611;DHT22;9435;52.122;5.502;2022-12-18T08:24:01;-5.00;99.90
18611;DHT22;9435;52.122;5.502;2022-12-18T08:26:30;-5.00;99.90
18611;DHT22;9435;52.122;5.502;2022-12-18T08:28:58;-4.90;99.90
18611;DHT22;9435;52.122;5.502;2022-12-18T08:31:29;-4.90;99.90
18611;DHT22;9435;52.122;5.502;2022-12-18T08:33:56;-4.80;99.90
18611;DHT22;9435;52.122;5.502;2022-12-18T08:36:24;-4.70;99.90
18611;DHT22;9435;52.122;5.502;2022-12-18T08:38:52;-4.70;99.90
18611;DHT22;9435;52.122;5.502;2022-12-18T08:41:19;-4.60;99.90
18611;DHT22;9435;52.122;5.502;2022-12-18T08:43:46;-4.50;99.90
18611;DHT22;9435;52.122;5.502;2022-12-18T08:46:37;-4.50;99.90
18611;DHT22;9435;52.122;5.502;2022-12-18T08:49:05;-4.50;99.90
18611;DHT22;9435;52.122;5.502;2022-12-18T08:51:32;-4.40;99.90
18611;DHT22;9435;52.122;5.502;2022-12-18T08:53:59;-4.40;99.90
18611;DHT22;9435;52.122;5.502;2022-12-18T08:56:26;-4.30;99.90
18611;DHT22;9435;52.122;5.502;2022-12-18T08:58:54;-4.30;99.90
18611;DHT22;9435;52.122;5.502;2022-12-18T09:01:21;-4.20;99.90
18611;DHT22;9435;52.122;5.502;2022-12-18T09:03:50;-4.20;99.90
18611;DHT22;9435;52.122;5.502;2022-12-18T09:06:19;-4.10;99.90
18611;DHT22;9435;52.122;5.502;2022-12-18T09:08:46;-4.00;99.90
18611;DHT22;9435;52.122;5.502;2022-12-18T09:11:15;-3.90;99.90
18611;DHT22;9435;52.122;5.502;2022-12-18T09:13:42;-3.90;99.90
18611;DHT22;9435;52.122;5.502;2022-12-18T09:16:09;-3.80;99.90
18611;DHT22;9435;52.122;5.502;2022-12-18T09:18:36;-3.80;99.90
18611;DHT22;9435;52.122;5.502;2022-12-18T09:21:13;-3.70;99.90
18611;DHT22;9435;52.122;5.502;2022-12-18T09:23:40;-3.70;99.90
18611;DHT22;9435;52.122;5.502;2022-12-18T09:26:07;-3.60;99.90
18611;DHT22;9435;52.122;5.502;2022-12-18T09:28:34;-3.50;99.90
18611;DHT22;9435;52.122;5.502;2022-12-18T09:31:05;-3.40;99.90
18611;DHT22;9435;52.122;5.502;2022-12-18T09:33:33;-3.30;99.90
18611;DHT22;9435;52.122;5.502;2022-12-18T09:36:01;-3.20;99.90
18611;DHT22;9435;52.122;5.502;2022-12-18T09:38:30;-3.20;99.90
18611;DHT22;9435;52.122;5.502;2022-12-18T09:41:00;-3.10;99.90
18611;DHT22;9435;52.122;5.502;2022-12-18T09:43:35;-3.00;99.90
18611;DHT22;9435;52.122;5.502;2022-12-18T09:46:07;-3.00;99.90
18611;DHT22;9435;52.122;5.502;2022-12-18T09:48:37;-2.90;99.90
18611;DHT22;9435;52.122;5.502;2022-12-18T09:51:12;-2.80;99.90
18611;DHT22;9435;52.122;5.502;2022-12-18T09:53:46;-2.70;99.90
18611;DHT22;9435;52.122;5.502;2022-12-18T09:56:17;-2.60;99.90
18611;DHT22;9435;52.122;5.502;2022-12-18T09:58:50;-2.50;99.90
18611;DHT22;9435;52.122;5.502;2022-12-18T10:01:21;-2.50;99.90
18611;DHT22;9435;52.122;5.502;2022-12-18T10:03:50;-2.50;99.90
18611;DHT22;9435;52.122;5.502;2022-12-18T10:06:20;-2.40;99.90
18611;DHT22;9435;52.122;5.502;2022-12-18T10:08:54;-2.40;99.90
18611;DHT22;9435;52.122;5.502;2022-12-18T10:11:34;-2.30;99.90
18611;DHT22;9435;52.122;5.502;2022-12-18T10:14:10;-2.30;99.90
18611;DHT22;9435;52.122;5.502;2022-12-18T10:16:51;-2.20;99.90
18611;DHT22;9435;52.122;5.502;2022-12-18T10:19:31;-2.20;99.90
18611;DHT22;9435;52.122;5.502;2022-12-18T10:22:13;-2.20;99.90
18611;DHT22;9435;52.122;5.502;2022-12-18T10:24:47;-2.10;99.90
18611;DHT22;9435;52.122;5.502;2022-12-18T10:27:22;-2.00;99.90
18611;DHT22;9435;52.122;5.502;2022-12-18T10:29:50;-2.00;99.90
18611;DHT22;9435;52.122;5.502;2022-12-18T10:32:19;-1.90;99.90
18611;DHT22;9435;52.122;5.502;2022-12-18T10:34:47;-1.90;99.90
18611;DHT22;9435;52.122;5.502;2022-12-18T10:37:17;-1.80;99.90
18611;DHT22;9435;52.122;5.502;2022-12-18T10:40:08;-1.80;99.90
18611;DHT22;9435;52.122;5.502;2022-12-18T10:42:39;-1.80;99.90
18611;DHT22;9435;52.122;5.502;2022-12-18T10:45:12;-1.70;99.90
18611;DHT22;9435;52.122;5.502;2022-12-18T10:47:42;-1.70;99.90
18611;DHT22;9435;52.122;5.502;2022-12-18T10:50:20;-1.70;99.90
18611;DHT22;9435;52.122;5.502;2022-12-18T10:52:58;-1.70;99.90
18611;DHT22;9435;52.122;5.502;2022-12-18T10:55:32;-1.60;99.90
18611;DHT22;9435;52.122;5.502;2022-12-18T10:58:18;-1.50;99.90
18611;DHT22;9435;52.122;5.502;2022-12-18T11:01:03;-1.50;99.90
18611;DHT22;9435;52.122;5.502;2022-12-18T11:03:32;-1.40;99.90
18611;DHT22;9435;52.122;5.502;2022-12-18T11:06:09;-1.40;99.90
18611;DHT22;9435;52.122;5.502;2022-12-18T11:08:36;-1.40;99.90
18611;DHT22;9435;52.122;5.502;2022-12-18T11:11:14;-1.30;99.90
18611;DHT22;9435;52.122;5.502;2022-12-18T11:13:52;-1.30;99.90
18611;DHT22;9435;52.122;5.502;2022-12-18T11:16:23;-1.30;99.90
18611;DHT22;9435;52.122;5.502;2022-12-18T11:18:50;-1.20;99.90
18611;DHT22;9435;52.122;5.502;2022-12-18T11:21:17;-1.20;99.90
18611;DHT22;9435;52.122;5.502;2022-12-18T11:23:47;-1.10;99.90
18611;DHT22;9435;52.122;5.502;2022-12-18T11:26:16;-1.10;99.90
18611;DHT22;9435;52.122;5.502;2022-12-18T11:28:46;-1.10;99.90
18611;DHT22;9435;52.122;5.502;2022-12-18T11:31:24;-1.00;99.90
18611;DHT22;9435;52.122;5.502;2022-12-18T11:34:04;-1.00;99.90
18611;DHT22;9435;52.122;5.502;2022-12-18T11:36:34;-1.00;99.90
18611;DHT22;9435;52.122;5.502;2022-12-18T11:39:09;-0.90;99.90
18611;DHT22;9435;52.122;5.502;2022-12-18T11:41:43;-0.90;99.90
18611;DHT22;9435;52.122;5.502;2022-12-18T11:44:38;-0.90;99.90
18611;DHT22;9435;52.122;5.502;2022-12-18T11:47:14;-0.80;99.90
18611;DHT22;9435;52.122;5.502;2022-12-18T11:49:42;-0.80;99.90
18611;DHT22;9435;52.122;5.502;2022-12-18T11:52:16;-0.80;99.90
18611;DHT22;9435;52.122;5.502;2022-12-18T11:54:45;-0.80;99.90
18611;DHT22;9435;52.122;5.502;2022-12-18T11:57:25;-0.80;99.90
18611;DHT22;9435;52.122;5.502;2022-12-18T12:00:04;-0.70;99.90
18611;DHT22;9435;52.122;5.502;2022-12-18T12:02:44;-0.70;99.90
18611;DHT22;9435;52.122;5.502;2022-12-18T12:05:32;-0.60;99.90
18611;DHT22;9435;52.122;5.502;2022-12-18T12:08:11;-0.60;99.90
18611;DHT22;9435;52.122;5.502;2022-12-18T12:10:50;-0.60;99.90
18611;DHT22;9435;52.122;5.502;2022-12-18T12:13:29;-0.60;99.90
18611;DHT22;9435;52.122;5.502;2022-12-18T12:16:10;-0.60;99.90
18611;DHT22;9435;52.122;5.502;2022-12-18T12:19:03;-0.60;99.90
18611;DHT22;9435;52.122;5.502;2022-12-18T12:21:38;-0.50;99.90
18611;DHT22;9435;52.122;5.502;2022-12-18T12:24:18;-0.50;99.90
18611;DHT22;9435;52.122;5.502;2022-12-18T12:26:55;-0.40;99.90
18611;DHT22;9435;52.122;5.502;2022-12-18T12:29:36;-0.40;99.90
18611;DHT22;9435;52.122;5.502;2022-12-18T12:32:20;-0.40;99.90
18611;DHT22;9435;52.122;5.502;2022-12-18T12:34:57;-0.40;99.90
18611;DHT22;9435;52.122;5.502;2022-12-18T12:37:35;-0.40;99.90
18611;DHT22;9435;52.122;5.502;2022-12-18T12:40:09;-0.40;99.90
18611;DHT22;9435;52.122;5.502;2022-12-18T12:42:41;-0.40;99.90
18611;DHT22;9435;52.122;5.502;2022-12-18T12:45:34;-0.40;99.90
18611;DHT22;9435;52.122;5.502;2022-12-18T12:48:05;-0.30;99.90
18611;DHT22;9435;52.122;5.502;2022-12-18T12:50:35;-0.30;99.90
18611;DHT22;9435;52.122;5.502;2022-12-18T12:53:07;-0.30;99.90
18611;DHT22;9435;52.122;5.502;2022-12-18T12:55:36;-0.30;99.90
18611;DHT22;9435;52.122;5.502;2022-12-18T12:58:08;-0.20;99.90
18611;DHT22;9435;52.122;5.502;2022-12-18T13:00:46;-0.20;99.90
18611;DHT22;9435;52.122;5.502;2022-12-18T13:03:27;-0.20;99.90
18611;DHT22;9435;52.122;5.502;2022-12-18T13:06:03;-0.10;99.90
18611;DHT22;9435;52.122;5.502;2022-12-18T13:08:52;-0.10;99.90
18611;DHT22;9435;52.122;5.502;2022-12-18T13:11:30;-0.10;99.90
18611;DHT22;9435;52.122;5.502;2022-12-18T13:14:21;-0.10;99.90
18611;DHT22;9435;52.122;5.502;2022-12-18T13:16:51;-0.10;99.90
18611;DHT22;9435;52.122;5.502;2022-12-18T13:19:23;-0.10;99.90
18611;DHT22;9435;52.122;5.502;2022-12-18T13:21:54;-0.10;99.90
18611;DHT22;9435;52.122;5.502;2022-12-18T13:24:25;0.00;99.90
18611;DHT22;9435;52.122;5.502;2022-12-18T13:26:54;0.00;99.90
18611;DHT22;9435;52.122;5.502;2022-12-18T13:29:40;0.00;99.90
18611;DHT22;9435;52.122;5.502;2022-12-18T13:32:23;0.00;99.90
18611;DHT22;9435;52.122;5.502;2022-12-18T13:37:52;0.00;99.90
18611;DHT22;9435;52.122;5.502;2022-12-18T13:43:37;0.00;99.90
18611;DHT22;9435;52.122;5.502;2022-12-18T13:46:26;0.00;99.90
18611;DHT22;9435;52.122;5.502;2022-12-18T13:49:00;0.10;99.90
18611;DHT22;9435;52.122;5.502;2022-12-18T13:51:31;0.10;99.90
18611;DHT22;9435;52.122;5.502;2022-12-18T13:54:01;0.10;99.90
18611;DHT22;9435;52.122;5.502;2022-12-18T13:56:31;0.00;99.90
18611;DHT22;9435;52.122;5.502;2022-12-18T13:59:17;0.00;99.90
18611;DHT22;9435;52.122;5.502;2022-12-18T14:01:48;0.10;99.90
18611;DHT22;9435;52.122;5.502;2022-12-18T14:04:23;0.10;99.90
18611;DHT22;9435;52.122;5.502;2022-12-18T14:06:52;0.00;99.90
18611;DHT22;9435;52.122;5.502;2022-12-18T14:09:25;0.10;99.90
18611;DHT22;9435;52.122;5.502;2022-12-18T14:11:53;0.00;99.90
18611;DHT22;9435;52.122;5.502;2022-12-18T14:14:45;0.00;99.90
18611;DHT22;9435;52.122;5.502;2022-12-18T14:17:15;0.10;99.90
18611;DHT22;9435;52.122;5.502;2022-12-18T14:19:46;0.10;99.90
18611;DHT22;9435;52.122;5.502;2022-12-18T14:22:20;0.10;99.90
18611;DHT22;9435;52.122;5.502;2022-12-18T14:25:10;0.10;99.90
18611;DHT22;9435;52.122;5.502;2022-12-18T14:27:43;0.10;99.90
18611;DHT22;9435;52.122;5.502;2022-12-18T14:30:35;0.10;99.90
18611;DHT22;9435;52.122;5.502;2022-12-18T14:33:04;0.00;99.90
18611;DHT22;9435;52.122;5.502;2022-12-18T14:35:35;0.00;99.90
18611;DHT22;9435;52.122;5.502;2022-12-18T14:38:22;0.00;99.90
18611;DHT22;9435;52.122;5.502;2022-12-18T14:40:54;0.10;99.90
18611;DHT22;9435;52.122;5.502;2022-12-18T14:43:21;0.10;99.90
18611;DHT22;9435;52.122;5.502;2022-12-18T14:45:49;0.10;99.90
18611;DHT22;9435;52.122;5.502;2022-12-18T14:48:18;0.00;99.90
18611;DHT22;9435;52.122;5.502;2022-12-18T14:50:55;0.10;99.90
18611;DHT22;9435;52.122;5.502;2022-12-18T14:53:33;0.10;99.90
18611;DHT22;9435;52.122;5.502;2022-12-18T14:56:02;0.10;99.90
18611;DHT22;9435;52.122;5.502;2022-12-18T14:58:30;0.10;99.90
18611;DHT22;9435;52.122;5.502;2022-12-18T15:00:58;0.10;99.90
18611;DHT22;9435;52.122;5.502;2022-12-18T15:03:25;0.10;99.90
18611;DHT22;9435;52.122;5.502;2022-12-18T15:05:54;0.10;99.90
18611;DHT22;9435;52.122;5.502;2022-12-18T15:08:32;0.10;99.90
18611;DHT22;9435;52.122;5.502;2022-12-18T15:11:02;0.10;99.90
18611;DHT22;9435;52.122;5.502;2022-12-18T15:13:29;0.10;99.90
18611;DHT22;9435;52.122;5.502;2022-12-18T15:16:00;0.00;99.90
18611;DHT22;9435;52.122;5.502;2022-12-18T15:18:31;0.10;99.90
18611;DHT22;9435;52.122;5.502;2022-12-18T15:21:08;0.10;99.90
18611;DHT22;9435;52.122;5.502;2022-12-18T15:23:45;0.00;99.90
18611;DHT22;9435;52.122;5.502;2022-12-18T15:26:14;0.10;99.90
18611;DHT22;9435;52.122;5.502;2022-12-18T15:28:45;0.10;99.90
18611;DHT22;9435;52.122;5.502;2022-12-18T15:31:28;0.10;99.90
18611;DHT22;9435;52.122;5.502;2022-12-18T15:34:10;0.10;99.90
18611;DHT22;9435;52.122;5.502;2022-12-18T15:36:41;0.10;99.90
18611;DHT22;9435;52.122;5.502;2022-12-18T15:39:11;0.10;99.90
18611;DHT22;9435;52.122;5.502;2022-12-18T15:41:39;0.20;99.90
18611;DHT22;9435;52.122;5.502;2022-12-18T15:44:27;0.20;99.90
18611;DHT22;9435;52.122;5.502;2022-12-18T15:46:54;0.10;99.90
18611;DHT22;9435;52.122;5.502;2022-12-18T15:49:21;0.10;99.90
18611;DHT22;9435;52.122;5.502;2022-12-18T15:51:52;0.10;99.90
18611;DHT22;9435;52.122;5.502;2022-12-18T15:54:21;0.10;99.90
18611;DHT22;9435;52.122;5.502;2022-12-18T15:57:09;0.10;99.90
18611;DHT22;9435;52.122;5.502;2022-12-18T15:59:53;0.10;99.90
18611;DHT22;9435;52.122;5.502;2022-12-18T16:02:24;0.10;99.90
18611;DHT22;9435;52.122;5.502;2022-12-18T16:04:52;0.10;99.90
18611;DHT22;9435;52.122;5.502;2022-12-18T16:07:21;0.10;99.90
18611;DHT22;9435;52.122;5.502;2022-12-18T16:09:50;0.10;99.90
18611;DHT22;9435;52.122;5.502;2022-12-18T16:12:21;0.10;99.90
18611;DHT22;9435;52.122;5.502;2022-12-18T16:14:51;0.10;99.90
18611;DHT22;9435;52.122;5.502;2022-12-18T16:17:18;0.10;99.90
18611;DHT22;9435;52.122;5.502;2022-12-18T16:19:46;0.10;99.90
18611;DHT22;9435;52.122;5.502;2022-12-18T16:22:19;0.10;99.90